KCVN/CVN METAR and TAF weather

Enter ICAO airport designator
Station Type Date Time Source
KCVN METAR 2022/01/26 14:36 UTC NOAA

KCVN 261436Z AUTO 06005KT 3/4SM -SN BR FEW007 OVC014 M07/M08 A3026 RMK AO2 P0000 FZRANO


Station Type Date Time Source
KCVN Decoded METAR 2022/01/26 14:36 UTC NOAA

Clovis, Clovis Municipal Airport, NM, United States (KCVN) 34-26N 103-05W
Jan 26, 2022 - 09:36 AM EST / 2022.01.26 1436 UTC
Wind: from the ENE (060 degrees) at 6 MPH (5 KT):0
Visibility: 3/4 mile(s):0
Sky conditions: overcast
Weather: light snow; mist
Precipitation last hour: A trace
Temperature: 19 F (-7 C)
Windchill: 10 F (-12 C):1
Dew Point: 17 F (-8 C)
Relative Humidity: 92%
Pressure (altimeter): 30.26 in. Hg (1024 hPa)
ob: KCVN 261436Z AUTO 06005KT 3/4SM -SN BR FEW007 OVC014 M07/M08 A3026 RMK AO2 P0000 FZRANO
cycle: 14

Station Type Date Time Source
KCVN TAF UTC NOAA

Error!

Example: see airport list